N6186F KBUF-KBUF
Flight info
| Callsign | N6186F |
|---|---|
| Flight time | 0h 45m |
| Altitude | VFR/030 |
| Route | VFR |
| Aircraft | HJET/L-VGDW/C |
Departure
| Time | 2026-04-30 19:02 |
|---|---|
| Airport | Buffalo Niagara International Airport (KBUF) |
Arrival
| Time | 2026-04-30 19:47 |
|---|---|
| Airport | Buffalo Niagara International Airport (KBUF) |
| Time | Latitude | Longitude | Altitude | Speed | Heading |
|---|---|---|---|---|---|
| 2026-04-30 18:53 | 42.93858 | -78.74146 | 716 ft | 0 kts | 269° |
| 2026-04-30 18:55 | 42.93858 | -78.74148 | 716 ft | 5 kts | 277° |
| 2026-04-30 18:56 | 42.93908 | -78.73956 | 716 ft | 16 kts | 92° |
| 2026-04-30 18:56 | 42.93850 | -78.73848 | 719 ft | 16 kts | 170° |
| 2026-04-30 18:56 | 42.93766 | -78.73769 | 716 ft | 15 kts | 118° |
| 2026-04-30 18:57 | 42.93679 | -78.73550 | 719 ft | 10 kts | 117° |
| 2026-04-30 18:57 | 42.93661 | -78.73432 | 719 ft | 14 kts | 93° |
| 2026-04-30 18:57 | 42.93663 | -78.73297 | 718 ft | 15 kts | 82° |
| 2026-04-30 18:58 | 42.93786 | -78.73087 | 718 ft | 15 kts | 43° |
| 2026-04-30 18:58 | 42.93861 | -78.72990 | 720 ft | 15 kts | 43° |
| 2026-04-30 18:58 | 42.93934 | -78.72891 | 720 ft | 15 kts | 46° |
| 2026-04-30 18:59 | 42.94090 | -78.72684 | 721 ft | 16 kts | 44° |
| 2026-04-30 19:00 | 42.94324 | -78.72383 | 721 ft | 15 kts | 43° |
| 2026-04-30 19:00 | 42.94400 | -78.72280 | 721 ft | 15 kts | 45° |
| 2026-04-30 19:00 | 42.94554 | -78.72070 | 722 ft | 16 kts | 45° |
| 2026-04-30 19:01 | 42.94696 | -78.72072 | 723 ft | 12 kts | 279° |
| 2026-04-30 19:01 | 42.94683 | -78.72125 | 723 ft | 0 kts | 227° |
| 2026-04-30 19:02 | 42.94129 | -78.72857 | 719 ft | 143 kts | 224° |
| 2026-04-30 19:02 | 42.92526 | -78.75099 | 1743 ft | 186 kts | 226° |
| 2026-04-30 19:03 | 42.90548 | -78.77915 | 2933 ft | 222 kts | 226° |
| 2026-04-30 19:03 | 42.88411 | -78.80959 | 2995 ft | 223 kts | 226° |
| 2026-04-30 19:04 | 42.85807 | -78.83339 | 3003 ft | 250 kts | 194° |
| 2026-04-30 19:04 | 42.82329 | -78.84272 | 3009 ft | 255 kts | 191° |
| 2026-04-30 19:05 | 42.78841 | -78.85131 | 3010 ft | 254 kts | 191° |
| 2026-04-30 19:05 | 42.75359 | -78.85989 | 3008 ft | 255 kts | 191° |
| 2026-04-30 19:06 | 42.71892 | -78.86841 | 3008 ft | 255 kts | 191° |
| 2026-04-30 19:06 | 42.70148 | -78.87269 | 3003 ft | 255 kts | 191° |
| 2026-04-30 19:06 | 42.66659 | -78.88126 | 3010 ft | 255 kts | 191° |
| 2026-04-30 19:07 | 42.63253 | -78.87507 | 3005 ft | 256 kts | 146° |
| 2026-04-30 19:07 | 42.61849 | -78.86010 | 3011 ft | 257 kts | 140° |
| 2026-04-30 19:08 | 42.59180 | -78.82833 | 3005 ft | 257 kts | 139° |
| 2026-04-30 19:08 | 42.56536 | -78.79571 | 3006 ft | 257 kts | 129° |
| 2026-04-30 19:08 | 42.55781 | -78.77408 | 3012 ft | 257 kts | 99° |
| 2026-04-30 19:09 | 42.56912 | -78.73033 | 3009 ft | 257 kts | 39° |
| 2026-04-30 19:09 | 42.58496 | -78.71982 | 3009 ft | 256 kts | 10° |
| 2026-04-30 19:09 | 42.60266 | -78.71804 | 3008 ft | 256 kts | 1° |
| 2026-04-30 19:10 | 42.63740 | -78.71033 | 3009 ft | 256 kts | 17° |
| 2026-04-30 19:10 | 42.67144 | -78.69585 | 3007 ft | 256 kts | 15° |
| 2026-04-30 19:11 | 42.68864 | -78.68954 | 3009 ft | 256 kts | 14° |
| 2026-04-30 19:11 | 42.72291 | -78.67635 | 3008 ft | 256 kts | 15° |
| 2026-04-30 19:11 | 42.74005 | -78.66971 | 3009 ft | 256 kts | 15° |
| 2026-04-30 19:12 | 42.75718 | -78.66313 | 3010 ft | 256 kts | 15° |
| 2026-04-30 19:12 | 42.77432 | -78.65657 | 3009 ft | 256 kts | 15° |
| 2026-04-30 19:12 | 42.79122 | -78.65004 | 3006 ft | 256 kts | 15° |
| 2026-04-30 19:13 | 42.82544 | -78.63679 | 3004 ft | 256 kts | 15° |
| 2026-04-30 19:13 | 42.85971 | -78.62357 | 3004 ft | 256 kts | 15° |
| 2026-04-30 19:13 | 42.87682 | -78.61694 | 3003 ft | 256 kts | 15° |
| 2026-04-30 19:14 | 42.89393 | -78.61033 | 3008 ft | 256 kts | 15° |
| 2026-04-30 19:14 | 42.91103 | -78.60371 | 3000 ft | 256 kts | 15° |
| 2026-04-30 19:14 | 42.92715 | -78.59377 | 2997 ft | 256 kts | 37° |
| 2026-04-30 19:14 | 42.93968 | -78.57702 | 2999 ft | 257 kts | 48° |
| 2026-04-30 19:15 | 42.95138 | -78.55862 | 2997 ft | 257 kts | 49° |
| 2026-04-30 19:15 | 42.97448 | -78.52139 | 3000 ft | 257 kts | 49° |
| 2026-04-30 19:15 | 42.98600 | -78.50280 | 3004 ft | 257 kts | 49° |
| 2026-04-30 19:16 | 42.99754 | -78.48420 | 3007 ft | 257 kts | 49° |
| 2026-04-30 19:16 | 43.00885 | -78.46597 | 3002 ft | 240 kts | 49° |
| 2026-04-30 19:16 | 43.02786 | -78.43527 | 2993 ft | 198 kts | 49° |
| 2026-04-30 19:17 | 43.03654 | -78.42137 | 2989 ft | 194 kts | 45° |
| 2026-04-30 19:17 | 43.06113 | -78.41613 | 2998 ft | 193 kts | 327° |
| 2026-04-30 19:17 | 43.06957 | -78.42990 | 3006 ft | 192 kts | 294° |
| 2026-04-30 19:18 | 43.07737 | -78.45836 | 3007 ft | 189 kts | 289° |
| 2026-04-30 19:18 | 43.08303 | -78.47996 | 3007 ft | 174 kts | 289° |
| 2026-04-30 19:18 | 43.08464 | -78.49585 | 3008 ft | 170 kts | 258° |
| 2026-04-30 19:19 | 43.08085 | -78.51129 | 3008 ft | 173 kts | 249° |
| 2026-04-30 19:19 | 43.07659 | -78.52669 | 3004 ft | 172 kts | 249° |
| 2026-04-30 19:19 | 43.06737 | -78.55682 | 3008 ft | 172 kts | 243° |
| 2026-04-30 19:20 | 43.06080 | -78.57014 | 3011 ft | 171 kts | 227° |
| 2026-04-30 19:20 | 43.05245 | -78.58177 | 3001 ft | 172 kts | 225° |
| 2026-04-30 19:20 | 43.03587 | -78.60400 | 2988 ft | 147 kts | 224° |
| 2026-04-30 19:21 | 43.02901 | -78.61300 | 2925 ft | 131 kts | 224° |
| 2026-04-30 19:21 | 43.01590 | -78.63025 | 2592 ft | 131 kts | 224° |
| 2026-04-30 19:22 | 43.00292 | -78.64732 | 2255 ft | 130 kts | 224° |
| 2026-04-30 19:22 | 42.98339 | -78.67311 | 1735 ft | 129 kts | 224° |
| 2026-04-30 19:23 | 42.96388 | -78.69873 | 1195 ft | 138 kts | 224° |
| 2026-04-30 19:24 | 42.94925 | -78.71806 | 829 ft | 154 kts | 224° |
| 2026-04-30 19:24 | 42.94160 | -78.72816 | 808 ft | 152 kts | 224° |
| 2026-04-30 19:24 | 42.92646 | -78.74819 | 1684 ft | 142 kts | 231° |
| 2026-04-30 19:25 | 42.90030 | -78.76883 | 2983 ft | 180 kts | 191° |
| 2026-04-30 19:26 | 42.87096 | -78.77657 | 3006 ft | 246 kts | 191° |
| 2026-04-30 19:26 | 42.83650 | -78.78588 | 3012 ft | 254 kts | 191° |
| 2026-04-30 19:26 | 42.81912 | -78.79056 | 3009 ft | 255 kts | 191° |
| 2026-04-30 19:27 | 42.78433 | -78.79987 | 3008 ft | 255 kts | 191° |
| 2026-04-30 19:27 | 42.74957 | -78.80930 | 3009 ft | 255 kts | 192° |
| 2026-04-30 19:28 | 42.73218 | -78.81399 | 3007 ft | 255 kts | 192° |
| 2026-04-30 19:28 | 42.69739 | -78.82346 | 3005 ft | 255 kts | 192° |
| 2026-04-30 19:29 | 42.66286 | -78.83284 | 3006 ft | 255 kts | 191° |
| 2026-04-30 19:29 | 42.64546 | -78.83753 | 3010 ft | 255 kts | 191° |
| 2026-04-30 19:30 | 42.60065 | -78.86927 | 3004 ft | 253 kts | 246° |
| 2026-04-30 19:30 | 42.59716 | -78.91650 | 3007 ft | 253 kts | 271° |
| 2026-04-30 19:31 | 42.60652 | -78.96145 | 3007 ft | 253 kts | 304° |
| 2026-04-30 19:31 | 42.61701 | -78.98067 | 3008 ft | 254 kts | 307° |
| 2026-04-30 19:31 | 42.64124 | -79.01448 | 3006 ft | 254 kts | 329° |
| 2026-04-30 19:32 | 42.65676 | -79.02597 | 3009 ft | 254 kts | 332° |
| 2026-04-30 19:32 | 42.67249 | -79.03687 | 3006 ft | 254 kts | 333° |
| 2026-04-30 19:32 | 42.68854 | -79.04789 | 3005 ft | 262 kts | 333° |
| 2026-04-30 19:32 | 42.70524 | -79.05581 | 3002 ft | 253 kts | 352° |
| 2026-04-30 19:33 | 42.72291 | -79.05716 | 3004 ft | 255 kts | 359° |
| 2026-04-30 19:33 | 42.74067 | -79.05725 | 3006 ft | 255 kts | 360° |
| 2026-04-30 19:33 | 42.75842 | -79.05718 | 3008 ft | 255 kts | 360° |
| 2026-04-30 19:33 | 42.77614 | -79.05665 | 3007 ft | 255 kts | 7° |
| 2026-04-30 19:34 | 42.79329 | -79.05052 | 3009 ft | 256 kts | 19° |
| 2026-04-30 19:34 | 42.80974 | -79.04222 | 3009 ft | 256 kts | 20° |
| 2026-04-30 19:34 | 42.84170 | -79.02103 | 3008 ft | 256 kts | 31° |
| 2026-04-30 19:35 | 42.85627 | -79.00706 | 3009 ft | 256 kts | 38° |
| 2026-04-30 19:35 | 42.87007 | -78.99170 | 3009 ft | 256 kts | 39° |
| 2026-04-30 19:35 | 42.88377 | -78.97610 | 3008 ft | 256 kts | 39° |
| 2026-04-30 19:35 | 42.89743 | -78.96048 | 3006 ft | 256 kts | 40° |
| 2026-04-30 19:36 | 42.91108 | -78.94484 | 3005 ft | 256 kts | 39° |
| 2026-04-30 19:36 | 42.92454 | -78.92944 | 3005 ft | 256 kts | 39° |
| 2026-04-30 19:36 | 42.95187 | -78.89814 | 3007 ft | 256 kts | 39° |
| 2026-04-30 19:37 | 42.96552 | -78.88249 | 3006 ft | 256 kts | 40° |
| 2026-04-30 19:37 | 42.97917 | -78.86684 | 3007 ft | 256 kts | 39° |
| 2026-04-30 19:37 | 42.99285 | -78.85121 | 3009 ft | 256 kts | 39° |
| 2026-04-30 19:37 | 43.00653 | -78.83560 | 3005 ft | 256 kts | 39° |
| 2026-04-30 19:38 | 43.02020 | -78.81998 | 3007 ft | 256 kts | 39° |
| 2026-04-30 19:38 | 43.03369 | -78.80455 | 3006 ft | 256 kts | 39° |
| 2026-04-30 19:38 | 43.04737 | -78.78893 | 3003 ft | 256 kts | 39° |
| 2026-04-30 19:38 | 43.06104 | -78.77331 | 3005 ft | 256 kts | 39° |
| 2026-04-30 19:39 | 43.07472 | -78.75767 | 3003 ft | 256 kts | 39° |
| 2026-04-30 19:39 | 43.08840 | -78.74203 | 3003 ft | 256 kts | 39° |
| 2026-04-30 19:39 | 43.10208 | -78.72641 | 3003 ft | 256 kts | 39° |
| 2026-04-30 19:39 | 43.11577 | -78.71077 | 3004 ft | 256 kts | 39° |
| 2026-04-30 19:40 | 43.12946 | -78.69513 | 3004 ft | 256 kts | 39° |
| 2026-04-30 19:40 | 43.14185 | -78.67780 | 3000 ft | 256 kts | 58° |
| 2026-04-30 19:40 | 43.14705 | -78.65474 | 3005 ft | 257 kts | 88° |
| 2026-04-30 19:40 | 43.14350 | -78.63133 | 3010 ft | 257 kts | 113° |
| 2026-04-30 19:41 | 43.13555 | -78.60948 | 3009 ft | 255 kts | 118° |
| 2026-04-30 19:41 | 43.12742 | -78.58972 | 3011 ft | 213 kts | 120° |
| 2026-04-30 19:41 | 43.12019 | -78.57259 | 3006 ft | 202 kts | 120° |
| 2026-04-30 19:41 | 43.11171 | -78.55808 | 2998 ft | 194 kts | 147° |
| 2026-04-30 19:42 | 43.09892 | -78.55292 | 2756 ft | 199 kts | 181° |
| 2026-04-30 19:42 | 43.08488 | -78.55492 | 2258 ft | 208 kts | 189° |
| 2026-04-30 19:42 | 43.07060 | -78.55799 | 2004 ft | 202 kts | 194° |
| 2026-04-30 19:42 | 43.05927 | -78.56709 | 2008 ft | 186 kts | 232° |
| 2026-04-30 19:43 | 43.05246 | -78.58115 | 2009 ft | 170 kts | 230° |
| 2026-04-30 19:43 | 43.04477 | -78.59183 | 2002 ft | 149 kts | 225° |
| 2026-04-30 19:43 | 43.03741 | -78.60183 | 1996 ft | 151 kts | 225° |
| 2026-04-30 19:44 | 43.02235 | -78.62175 | 1990 ft | 151 kts | 224° |
| 2026-04-30 19:44 | 43.01480 | -78.63169 | 1990 ft | 151 kts | 224° |
| 2026-04-30 19:44 | 43.00726 | -78.64161 | 1992 ft | 151 kts | 224° |
| 2026-04-30 19:44 | 42.99971 | -78.65155 | 1990 ft | 149 kts | 225° |
| 2026-04-30 19:45 | 42.99285 | -78.66064 | 1973 ft | 130 kts | 224° |
| 2026-04-30 19:45 | 42.98636 | -78.66918 | 1813 ft | 129 kts | 225° |
| 2026-04-30 19:45 | 42.97998 | -78.67757 | 1646 ft | 129 kts | 225° |
| 2026-04-30 19:45 | 42.97381 | -78.68569 | 1474 ft | 118 kts | 225° |
| 2026-04-30 19:46 | 42.96792 | -78.69343 | 1327 ft | 119 kts | 225° |
| 2026-04-30 19:46 | 42.96198 | -78.70126 | 1166 ft | 118 kts | 225° |
| 2026-04-30 19:46 | 42.95606 | -78.70904 | 1012 ft | 118 kts | 224° |
| 2026-04-30 19:46 | 42.95014 | -78.71683 | 853 ft | 118 kts | 224° |
| 2026-04-30 19:47 | 42.94442 | -78.72434 | 725 ft | 104 kts | 224° |
| 2026-04-30 19:47 | 42.94129 | -78.72847 | 719 ft | 84 kts | 224° |
| 2026-04-30 19:47 | 42.93808 | -78.73276 | 722 ft | 27 kts | 227° |
| 2026-04-30 19:47 | 42.93693 | -78.73439 | 721 ft | 18 kts | 231° |
| 2026-04-30 19:48 | 42.93699 | -78.73587 | 717 ft | 17 kts | 302° |
| 2026-04-30 19:48 | 42.93723 | -78.73648 | 717 ft | 0 kts | 308° |
| 2026-04-30 19:49 | 42.93754 | -78.73717 | 716 ft | 10 kts | 298° |
| 2026-04-30 19:49 | 42.93858 | -78.73833 | 718 ft | 7 kts | 344° |
| 2026-04-30 19:49 | 42.93891 | -78.73861 | 718 ft | 6 kts | 306° |
| 2026-04-30 19:50 | 42.93902 | -78.73918 | 716 ft | 7 kts | 278° |
| 2026-04-30 19:50 | 42.93909 | -78.73987 | 716 ft | 8 kts | 278° |
| 2026-04-30 19:50 | 42.93913 | -78.74064 | 716 ft | 8 kts | 267° |
| 2026-04-30 19:50 | 42.93908 | -78.74113 | 716 ft | 0 kts | 262° |